Time;durP1;ratioP1;P1;durP2;ratioP2;P2;SDS_P1;SDS_P2;PMS_P1;PMS_P2;Temp;Humidity;BMP_temperature;BMP_pressure;BME280_temperature;BME280_humidity;BME280_pressure;Samples;Min_cycle;Max_cycle;Signal;HPM_P1;HPM_P2
2023/05/01 00:01:05;;;;;;;199.70;185.03;;;10.50;17.50;;;;;;5013022;28;20663;-71
2023/05/01 00:03:31;;;;;;;323.60;302.53;;;10.40;18.60;;;;;;5013085;28;20184;-71
2023/05/01 00:06:02;;;;;;;561.10;527.23;;;10.50;17.70;;;;;;5012857;28;20469;-71
2023/05/01 00:08:27;;;;;;;207.20;193.73;;;10.40;18.00;;;;;;5011690;28;20934;-71
2023/05/01 00:10:53;;;;;;;539.53;509.13;;;10.30;18.50;;;;;;5012531;28;20414;-71
2023/05/01 00:13:20;;;;;;;568.03;536.10;;;10.40;17.90;;;;;;5012451;28;20176;-70
2023/05/01 00:15:47;;;;;;;222.97;207.77;;;10.30;18.50;;;;;;5012930;28;20194;-71
2023/05/01 00:18:13;;;;;;;454.33;428.47;;;10.30;18.60;;;;;;5011311;28;20423;-71
2023/05/01 00:20:39;;;;;;;408.57;384.77;;;10.20;18.50;;;;;;5012522;28;20426;-71
2023/05/01 00:23:05;;;;;;;396.10;372.00;;;10.20;18.50;;;;;;5012424;28;20226;-71
2023/05/01 00:25:31;;;;;;;521.23;489.23;;;10.20;18.50;;;;;;5012503;28;20790;-71
2023/05/01 00:27:58;;;;;;;667.70;626.30;;;10.20;17.90;;;;;;5012724;28;20400;-71
2023/05/01 00:30:24;;;;;;;531.23;499.43;;;10.20;17.60;;;;;;5012418;28;20172;-72
2023/05/01 00:32:50;;;;;;;489.13;460.30;;;10.30;17.40;;;;;;5012235;28;20434;-72
2023/05/01 00:35:19;;;;;;;585.77;551.03;;;10.30;17.50;;;;;;5012598;28;20988;-72
2023/05/01 00:37:44;;;;;;;291.30;272.23;;;10.30;17.20;;;;;;5011096;28;20426;-71
2023/05/01 00:40:10;;;;;;;557.10;522.67;;;10.30;18.50;;;;;;5011695;28;20428;-72
2023/05/01 00:42:38;;;;;;;600.53;564.37;;;10.30;19.10;;;;;;5012104;28;20206;-72
2023/05/01 00:45:05;;;;;;;584.33;550.10;;;10.30;18.50;;;;;;5012170;28;20263;-71
2023/05/01 00:47:31;;;;;;;193.60;179.63;;;10.30;18.50;;;;;;5012184;28;20464;-71
2023/05/01 00:49:58;;;;;;;236.50;220.63;;;10.30;19.60;;;;;;5010902;28;20945;-70
2023/05/01 00:52:24;;;;;;;417.67;392.50;;;10.30;19.10;;;;;;5011707;28;20907;-71
2023/05/01 00:54:51;;;;;;;670.80;629.57;;;10.30;18.50;;;;;;5012121;28;20431;-71
2023/05/01 00:57:20;;;;;;;183.57;169.83;;;10.40;18.60;;;;;;5011826;28;20433;-71
2023/05/01 00:59:47;;;;;;;218.13;202.60;;;10.40;17.90;;;;;;5011892;28;20411;-70
2023/05/01 01:02:13;;;;;;;700.83;658.07;;;10.40;17.60;;;;;;5011705;28;20437;-71
2023/05/01 01:04:44;;;;;;;333.57;310.57;;;10.40;17.50;;;;;;5012119;28;20464;-71
2023/05/01 01:07:28;;;;;;;719.37;674.30;;;10.50;16.90;;;;;;5011867;28;21124;-70
2023/05/01 01:09:59;;;;;;;640.87;600.40;;;10.50;17.10;;;;;;5011845;28;20898;-71
2023/05/01 01:12:43;;;;;;;740.37;693.50;;;10.50;17.50;;;;;;5011657;28;20419;-71
2023/05/01 01:15:17;;;;;;;302.77;282.40;;;10.50;17.40;;;;;;5011874;28;20433;-71
2023/05/01 01:17:57;;;;;;;206.80;192.03;;;10.50;17.90;;;;;;5011944;28;20438;-72
2023/05/01 01:20:53;;;;;;;639.10;598.87;;;10.50;17.50;;;;;;5011763;28;20514;-72
2023/05/01 01:23:40;;;;;;;463.30;433.57;;;10.50;17.60;;;;;;4999725;28;20422;-73
2023/05/01 01:26:32;;;;;;;562.77;528.20;;;10.50;17.20;;;;;;5011618;28;20460;-71
2023/05/01 01:29:09;;;;;;;552.80;518.83;;;10.50;17.20;;;;;;5014118;28;20832;-73
2023/05/01 01:32:08;;;;;;;400.17;375.57;;;10.50;17.10;;;;;;5014755;28;20414;-71
2023/05/01 01:34:48;;;;;;;379.60;355.93;;;10.50;17.40;;;;;;5013326;28;20407;-71
2023/05/01 01:37:22;;;;;;;661.83;619.87;;;10.50;17.40;;;;;;5011902;28;20946;-72
2023/05/01 01:40:02;;;;;;;736.77;691.17;;;10.60;17.00;;;;;;5011915;28;20463;-72
2023/05/01 01:42:39;;;;;;;705.37;661.90;;;10.60;16.80;;;;;;5010137;28;20453;-72
2023/05/01 01:45:18;;;;;;;215.83;200.67;;;10.60;16.80;;;;;;5010200;28;20418;-72
2023/05/01 01:47:45;;;;;;;505.63;473.57;;;10.60;16.40;;;;;;5011622;28;20422;-73
2023/05/01 01:50:13;;;;;;;469.83;439.10;;;10.60;16.40;;;;;;5011643;28;20490;-72
2023/05/01 01:52:40;;;;;;;297.50;278.37;;;10.50;16.20;;;;;;5015087;28;20403;-71
2023/05/01 01:55:10;;;;;;;320.77;300.97;;;10.50;16.60;;;;;;5015241;28;20750;-71
2023/05/01 01:57:38;;;;;;;690.43;645.43;;;10.50;16.30;;;;;;5014952;28;20421;-73
2023/05/01 02:00:09;;;;;;;611.00;572.50;;;10.60;16.60;;;;;;5015123;28;20411;-72
2023/05/01 02:02:37;;;;;;;473.87;443.23;;;10.60;16.10;;;;;;5013505;28;20422;-71
2023/05/01 02:05:05;;;;;;;341.70;318.83;;;10.60;16.20;;;;;;5015037;28;20930;-71
2023/05/01 02:07:31;;;;;;;766.17;716.83;;;10.60;16.20;;;;;;5013553;28;20521;-72
2023/05/01 02:10:00;;;;;;;689.50;645.20;;;10.70;16.20;;;;;;5015049;28;20854;-72
2023/05/01 02:12:25;;;;;;;623.20;584.27;;;10.70;16.20;;;;;;5013191;28;20932;-71
2023/05/01 02:14:52;;;;;;;335.93;313.73;;;10.70;16.40;;;;;;5014643;28;20417;-72
2023/05/01 02:17:20;;;;;;;460.93;431.60;;;10.70;16.60;;;;;;5014712;28;20510;-72
2023/05/01 02:19:46;;;;;;;225.63;209.03;;;10.80;16.80;;;;;;5014757;28;20876;-72
2023/05/01 02:22:13;;;;;;;629.03;589.37;;;10.80;16.80;;;;;;5014500;28;20824;-71
2023/05/01 02:24:41;;;;;;;653.60;612.43;;;10.80;17.00;;;;;;5014477;28;20911;-72
2023/05/01 02:27:12;;;;;;;668.03;626.63;;;10.80;17.00;;;;;;5013963;28;20516;-71
2023/05/01 02:29:38;;;;;;;209.83;195.90;;;10.70;17.40;;;;;;5014223;28;20492;-72
2023/05/01 02:32:04;;;;;;;561.97;525.70;;;10.70;17.40;;;;;;5013772;28;20509;-72
2023/05/01 02:34:32;;;;;;;226.10;209.67;;;10.80;17.40;;;;;;5014151;28;20206;-72
2023/05/01 02:36:58;;;;;;;219.70;203.80;;;10.80;17.90;;;;;;5013885;28;20609;-72
2023/05/01 02:39:23;;;;;;;665.77;625.87;;;10.80;17.80;;;;;;5013852;28;20417;-72
2023/05/01 02:41:51;;;;;;;685.00;643.07;;;10.70;18.50;;;;;;5013538;28;20188;-72
2023/05/01 02:44:19;;;;;;;659.97;620.67;;;10.70;18.90;;;;;;5013924;28;20254;-72
2023/05/01 02:46:47;;;;;;;564.60;531.20;;;10.70;18.90;;;;;;5013584;28;20471;-72
2023/05/01 02:49:13;;;;;;;611.37;574.13;;;10.60;18.80;;;;;;5013843;28;20422;-72
2023/05/01 02:51:39;;;;;;;658.73;618.17;;;10.60;19.50;;;;;;5013495;28;20817;-72
2023/05/01 02:54:06;;;;;;;469.20;441.03;;;10.60;19.50;;;;;;5013585;28;20415;-73
2023/05/01 02:56:32;;;;;;;560.60;526.27;;;10.70;19.70;;;;;;5013653;28;20469;-72
2023/05/01 02:58:58;;;;;;;577.93;543.93;;;10.60;19.70;;;;;;5013902;28;20458;-73
2023/05/01 03:01:24;;;;;;;711.13;666.70;;;10.60;19.80;;;;;;5012259;28;20431;-72
2023/05/01 03:03:49;;;;;;;279.00;260.33;;;10.70;19.50;;;;;;5012505;28;20187;-72
2023/05/01 03:06:15;;;;;;;686.93;646.13;;;10.70;19.40;;;;;;5013568;28;20203;-72
2023/05/01 03:08:40;;;;;;;638.80;600.20;;;10.60;19.20;;;;;;5014084;28;20628;-72
2023/05/01 03:11:07;;;;;;;657.87;617.10;;;10.60;18.80;;;;;;5013635;28;20172;-73
2023/05/01 03:13:36;;;;;;;709.00;666.03;;;10.70;18.90;;;;;;5013510;28;20427;-73
2023/05/01 03:16:03;;;;;;;683.00;640.73;;;10.70;18.90;;;;;;5013755;28;20450;-69
2023/05/01 03:18:29;;;;;;;202.40;188.03;;;10.70;19.40;;;;;;5013737;28;20517;-70
2023/05/01 03:20:57;;;;;;;732.20;687.20;;;10.60;20.20;;;;;;5013549;28;20418;-70
2023/05/01 03:23:23;;;;;;;704.80;662.30;;;10.70;19.90;;;;;;5013120;28;20941;-70
2023/05/01 03:25:50;;;;;;;697.67;657.17;;;10.70;20.20;;;;;;5011766;28;20463;-69
2023/05/01 03:28:20;;;;;;;715.03;671.93;;;10.60;20.20;;;;;;5013419;28;20179;-70
2023/05/01 03:30:46;;;;;;;194.33;180.23;;;10.60;20.40;;;;;;5013541;28;20784;-70
2023/05/01 03:33:12;;;;;;;411.67;386.10;;;10.60;18.80;;;;;;5011865;28;20426;-69
2023/05/01 03:35:37;;;;;;;531.57;498.10;;;10.60;18.80;;;;;;5011849;28;20200;-71
2023/05/01 03:38:03;;;;;;;506.10;473.10;;;10.70;18.90;;;;;;5013271;28;20187;-71
2023/05/01 03:40:28;;;;;;;629.17;590.33;;;10.70;18.80;;;;;;5013146;28;20707;-70
2023/05/01 03:42:54;;;;;;;773.60;726.10;;;10.60;18.80;;;;;;5012930;28;20318;-70
2023/05/01 03:45:23;;;;;;;711.73;668.73;;;10.70;18.90;;;;;;5013042;28;20274;-70
2023/05/01 03:47:51;;;;;;;376.00;352.60;;;10.70;18.90;;;;;;5011815;28;20219;-70
2023/05/01 03:50:17;;;;;;;318.83;297.73;;;10.70;19.50;;;;;;5012870;28;20927;-71
2023/05/01 03:52:43;;;;;;;667.20;627.87;;;10.70;19.90;;;;;;5012689;28;20408;-71
2023/05/01 03:55:08;;;;;;;753.27;707.83;;;10.70;20.10;;;;;;5012760;28;20219;-70
2023/05/01 03:57:34;;;;;;;697.13;654.57;;;10.70;20.30;;;;;;5012837;28;20214;-70
2023/05/01 03:59:59;;;;;;;397.63;373.57;;;10.60;20.40;;;;;;5012744;28;20607;-70
2023/05/01 04:02:26;;;;;;;739.17;693.97;;;10.60;20.80;;;;;;5012831;28;20637;-70
2023/05/01 04:04:51;;;;;;;757.33;712.97;;;10.70;20.20;;;;;;5012469;28;20266;-70
2023/05/01 04:07:17;;;;;;;716.53;673.63;;;10.70;20.10;;;;;;5012465;28;20599;-69
2023/05/01 04:09:43;;;;;;;625.07;586.60;;;10.70;20.20;;;;;;5012444;28;20168;-70
2023/05/01 04:12:08;;;;;;;458.03;428.57;;;10.70;20.40;;;;;;5012333;28;20168;-70
2023/05/01 04:14:34;;;;;;;347.47;325.83;;;10.70;20.90;;;;;;5012676;28;20176;-70
2023/05/01 04:17:00;;;;;;;242.80;226.93;;;10.70;21.30;;;;;;5012849;28;20657;-70
2023/05/01 04:19:25;;;;;;;295.40;276.93;;;10.60;21.70;;;;;;5012627;28;20183;-70
2023/05/01 04:21:51;;;;;;;176.33;163.50;;;10.60;22.10;;;;;;5012313;28;20184;-70
2023/05/01 04:24:17;;;;;;;540.67;506.40;;;10.60;22.00;;;;;;5012326;28;20183;-70
2023/05/01 04:26:42;;;;;;;800.43;751.17;;;10.70;22.00;;;;;;5010923;28;20243;-70
2023/05/01 04:29:08;;;;;;;382.93;360.50;;;10.60;22.10;;;;;;5012557;28;20172;-69
2023/05/01 04:31:34;;;;;;;768.20;721.53;;;10.60;22.20;;;;;;5012149;28;20274;-70
2023/05/01 04:34:00;;;;;;;574.70;539.13;;;10.60;22.00;;;;;;5012349;28;20411;-71
2023/05/01 04:36:25;;;;;;;685.17;641.90;;;10.70;22.00;;;;;;5012431;28;20195;-72
2023/05/01 04:38:51;;;;;;;677.93;635.10;;;10.70;21.80;;;;;;5011037;28;20434;-74
2023/05/01 04:41:20;;;;;;;464.30;435.17;;;10.70;21.80;;;;;;5011826;28;20187;-73
2023/05/01 04:43:46;;;;;;;719.73;676.33;;;10.80;21.80;;;;;;5011980;28;20182;-73
2023/05/01 04:46:11;;;;;;;739.00;693.10;;;10.80;21.90;;;;;;5012373;28;20466;-73
2023/05/01 04:48:37;;;;;;;786.57;737.90;;;10.70;22.70;;;;;;5012132;28;20176;-74
2023/05/01 04:51:03;;;;;;;772.40;725.93;;;10.80;22.70;;;;;;5012148;28;20178;-71
2023/05/01 04:53:28;;;;;;;430.23;403.37;;;10.80;22.70;;;;;;5011986;28;20175;-71
2023/05/01 04:55:54;;;;;;;764.30;718.40;;;10.70;23.10;;;;;;5012032;28;20198;-71
2023/05/01 04:58:20;;;;;;;573.10;538.03;;;10.70;23.10;;;;;;5011968;28;20184;-71
2023/05/01 05:00:45;;;;;;;685.00;645.07;;;10.70;24.20;;;;;;5011972;28;20255;-71
2023/05/01 05:03:11;;;;;;;782.27;733.80;;;10.70;23.90;;;;;;5011739;28;20415;-72
2023/05/01 05:05:37;;;;;;;472.67;444.30;;;10.70;23.90;;;;;;5011740;28;20273;-71
2023/05/01 05:08:02;;;;;;;715.73;672.53;;;10.60;23.40;;;;;;5011834;28;20179;-71
2023/05/01 05:10:28;;;;;;;745.40;700.90;;;10.60;23.70;;;;;;5012012;28;20242;-71
2023/05/01 05:12:53;;;;;;;696.97;653.77;;;10.60;23.80;;;;;;5011574;28;20282;-74
2023/05/01 05:15:20;;;;;;;763.43;716.17;;;10.80;23.10;;;;;;5011848;28;20692;-73
2023/05/01 05:17:45;;;;;;;638.53;598.70;;;10.90;23.20;;;;;;5011685;28;20180;-71
2023/05/01 05:20:11;;;;;;;533.03;500.80;;;10.90;23.20;;;;;;5011921;28;20418;-71
2023/05/01 05:22:37;;;;;;;523.13;490.97;;;10.90;23.20;;;;;;5011709;28;20191;-72
2023/05/01 05:25:04;;;;;;;619.93;582.90;;;10.80;24.40;;;;;;5011960;28;20190;-72
2023/05/01 05:27:35;;;;;;;512.40;482.90;;;10.80;24.20;;;;;;5015497;28;20734;-74
2023/05/01 05:30:01;;;;;;;235.23;220.27;;;10.80;24.70;;;;;;5015817;28;20419;-72
2023/05/01 05:32:27;;;;;;;777.90;730.20;;;10.80;23.50;;;;;;5017306;28;20418;-72
2023/05/01 05:34:53;;;;;;;683.47;641.60;;;10.80;23.30;;;;;;5016270;28;20827;-72
2023/05/01 05:37:18;;;;;;;234.00;219.27;;;10.80;23.10;;;;;;5015970;28;20477;-73
2023/05/01 05:39:43;;;;;;;262.67;246.90;;;10.90;22.60;;;;;;5015773;28;20189;-69
2023/05/01 05:42:09;;;;;;;229.50;214.43;;;10.90;23.20;;;;;;5015629;28;20242;-70
2023/05/01 05:44:34;;;;;;;175.40;162.67;;;10.90;23.20;;;;;;5015938;28;20178;-70
2023/05/01 05:47:00;;;;;;;491.83;459.47;;;11.00;22.30;;;;;;5015355;28;20250;-70
2023/05/01 05:49:26;;;;;;;262.07;245.47;;;11.10;22.20;;;;;;5016060;28;20176;-70
2023/05/01 05:51:55;;;;;;;646.93;606.53;;;11.00;22.20;;;;;;5015169;28;20474;-70
2023/05/01 05:54:20;;;;;;;760.43;712.77;;;10.80;22.40;;;;;;5014290;28;20187;-70
2023/05/01 05:56:46;;;;;;;701.87;655.47;;;11.00;22.50;;;;;;5015493;28;20805;-69
2023/05/01 05:59:11;;;;;;;798.67;749.27;;;11.10;22.20;;;;;;5015439;28;20497;-70
2023/05/01 06:01:38;;;;;;;770.20;721.03;;;11.20;21.60;;;;;;5015056;28;20180;-70
2023/05/01 06:04:05;;;;;;;232.57;217.23;;;11.20;21.60;;;;;;5015199;28;20203;-70
2023/05/01 06:06:31;;;;;;;250.17;233.60;;;11.40;21.50;;;;;;5015057;28;20982;-70
2023/05/01 06:08:56;;;;;;;303.63;283.53;;;11.50;21.40;;;;;;5015075;28;20426;-70
2023/05/01 06:11:22;;;;;;;810.23;756.57;;;11.60;21.00;;;;;;5015388;28;20179;-71
2023/05/01 06:13:48;;;;;;;342.43;319.87;;;11.70;19.50;;;;;;5013360;28;20170;-69
2023/05/01 06:16:14;;;;;;;188.53;175.07;;;11.80;19.60;;;;;;5014777;28;20192;-69
2023/05/01 06:18:40;;;;;;;458.13;428.13;;;11.80;18.60;;;;;;5014810;28;20172;-69
2023/05/01 06:21:06;;;;;;;398.57;372.83;;;11.80;19.40;;;;;;5014746;28;20430;-69
2023/05/01 06:23:32;;;;;;;792.77;740.30;;;12.00;19.40;;;;;;5014492;28;20411;-70
2023/05/01 06:25:58;;;;;;;698.73;652.60;;;12.10;19.30;;;;;;5014471;28;20206;-69
2023/05/01 06:28:24;;;;;;;558.13;523.80;;;12.20;19.40;;;;;;5014456;28;20498;-70
2023/05/01 06:30:49;;;;;;;413.33;387.47;;;12.20;19.90;;;;;;5014355;28;20173;-70
2023/05/01 06:33:15;;;;;;;392.87;366.33;;;12.10;19.80;;;;;;5014129;28;20200;-69
2023/05/01 06:35:40;;;;;;;696.77;651.53;;;12.20;19.90;;;;;;5014227;28;20216;-69
2023/05/01 06:38:06;;;;;;;691.67;647.53;;;12.20;20.10;;;;;;5007827;28;20696;-70
2023/05/01 06:40:33;;;;;;;349.13;327.53;;;12.20;21.10;;;;;;5012811;28;20238;-70
2023/05/01 06:43:02;;;;;;;498.40;467.37;;;12.30;21.70;;;;;;5012882;28;20552;-69
2023/05/01 06:45:28;;;;;;;560.23;525.23;;;12.20;22.40;;;;;;5013903;28;20505;-69
2023/05/01 06:47:54;;;;;;;362.57;338.67;;;12.30;22.40;;;;;;5007029;28;20988;-70
2023/05/01 06:50:19;;;;;;;595.27;557.07;;;12.50;22.50;;;;;;4994658;28;20188;-69
2023/05/01 06:52:45;;;;;;;683.43;638.43;;;12.70;21.50;;;;;;5011319;28;20203;-68
2023/05/01 06:55:11;;;;;;;472.93;441.00;;;12.90;20.30;;;;;;5013802;28;20192;-69
2023/05/01 06:57:38;;;;;;;300.10;279.93;;;13.10;20.50;;;;;;5008015;28;20697;-69
2023/05/01 07:00:05;;;;;;;622.90;583.07;;;13.20;20.50;;;;;;4992835;28;20807;-69
2023/05/01 07:02:30;;;;;;;568.40;530.07;;;13.30;20.10;;;;;;4993939;28;20424;-68
2023/05/01 07:04:56;;;;;;;220.50;206.03;;;13.20;20.20;;;;;;4994043;28;20420;-68
2023/05/01 07:07:22;;;;;;;596.63;556.07;;;13.30;19.40;;;;;;5009481;28;20212;-69
2023/05/01 07:09:47;;;;;;;291.60;272.80;;;13.10;17.80;;;;;;5013777;28;20552;-69
2023/05/01 07:12:13;;;;;;;546.93;510.37;;;13.30;17.70;;;;;;5001993;28;20455;-69
2023/05/01 07:14:40;;;;;;;695.40;647.13;;;13.50;17.40;;;;;;5008433;28;20212;-69
2023/05/01 07:17:06;;;;;;;404.03;376.97;;;13.20;19.20;;;;;;5013375;28;20229;-69
2023/05/01 07:19:31;;;;;;;583.53;545.23;;;13.30;20.00;;;;;;5013526;28;20524;-69
2023/05/01 07:21:57;;;;;;;495.07;460.83;;;13.10;19.50;;;;;;5009945;28;20437;-69
2023/05/01 07:24:23;;;;;;;368.77;345.57;;;13.10;20.50;;;;;;5002190;28;20180;-69
2023/05/01 07:26:48;;;;;;;466.80;436.10;;;13.10;19.70;;;;;;5009658;28;20217;-71
2023/05/01 07:29:15;;;;;;;648.07;603.90;;;12.90;18.50;;;;;;5011777;28;20535;-68
2023/05/01 07:31:41;;;;;;;587.40;546.90;;;13.00;19.10;;;;;;5011048;28;20198;-71
2023/05/01 07:34:06;;;;;;;686.73;641.57;;;13.20;18.60;;;;;;5010928;28;20426;-71
2023/05/01 07:36:32;;;;;;;594.37;554.03;;;13.40;18.00;;;;;;5013504;28;20237;-70
2023/05/01 07:38:58;;;;;;;352.43;329.20;;;13.50;16.50;;;;;;5015799;28;20194;-71
2023/05/01 07:41:25;;;;;;;400.83;373.77;;;13.50;15.70;;;;;;5000588;28;20431;-71
2023/05/01 07:43:51;;;;;;;485.83;452.70;;;13.50;15.90;;;;;;4994775;28;20427;-68
2023/05/01 07:46:16;;;;;;;506.33;472.47;;;13.60;15.70;;;;;;4991738;28;20900;-69
2023/05/01 07:48:43;;;;;;;346.33;326.37;;;13.70;15.70;;;;;;4996122;28;20422;-71
2023/05/01 07:51:08;;;;;;;408.90;383.83;;;13.70;13.90;;;;;;5013023;28;20639;-70
2023/05/01 07:53:34;;;;;;;415.30;386.23;;;13.70;14.70;;;;;;5012616;28;20432;-70
2023/05/01 07:56:09;;;;;;;423.53;397.43;;;13.60;15.40;;;;;;5013016;28;20609;-69
2023/05/01 07:58:35;;;;;;;516.37;481.00;;;13.60;16.00;;;;;;5006872;28;20550;-70
2023/05/01 08:01:02;;;;;;;693.07;644.27;;;13.60;16.10;;;;;;4992133;28;20410;-69
2023/05/01 08:03:28;;;;;;;386.50;361.03;;;13.60;15.60;;;;;;4992873;28;20488;-69
2023/05/01 08:05:55;;;;;;;501.87;469.00;;;13.70;15.90;;;;;;4992933;28;20531;-70
2023/05/01 08:08:20;;;;;;;419.80;393.83;;;13.70;16.60;;;;;;4995332;28;20984;-69
2023/05/01 08:10:47;;;;;;;329.47;310.40;;;13.80;15.10;;;;;;5012239;28;20558;-69
2023/05/01 08:13:12;;;;;;;346.90;326.87;;;14.00;14.30;;;;;;5012458;28;20309;-70
2023/05/01 08:15:38;;;;;;;618.97;574.37;;;14.00;13.90;;;;;;5012783;28;20430;-70
2023/05/01 08:18:04;;;;;;;600.47;559.70;;;14.10;12.60;;;;;;5012323;28;20194;-70
2023/05/01 08:20:30;;;;;;;453.17;424.37;;;14.30;13.50;;;;;;4993521;28;20223;-70
2023/05/01 08:22:55;;;;;;;561.37;523.27;;;14.50;12.80;;;;;;4992512;28;20419;-69
2023/05/01 08:25:21;;;;;;;525.37;490.23;;;14.80;13.00;;;;;;4992575;28;20231;-70
2023/05/01 08:27:48;;;;;;;677.63;629.63;;;14.90;12.50;;;;;;4991503;28;20580;-70
2023/05/01 08:30:13;;;;;;;506.37;470.83;;;15.20;12.70;;;;;;5009972;28;20202;-69
2023/05/01 08:32:39;;;;;;;790.30;731.07;;;15.10;12.70;;;;;;5011546;28;20939;-70
2023/05/01 08:35:05;;;;;;;407.23;380.23;;;15.20;13.40;;;;;;5012106;28;20207;-70
2023/05/01 08:37:30;;;;;;;388.10;362.77;;;15.40;11.60;;;;;;5012279;28;20602;-69
2023/05/01 08:39:56;;;;;;;434.80;405.40;;;16.20;11.50;;;;;;4997168;28;20180;-70
2023/05/01 08:42:22;;;;;;;660.57;611.40;;;16.80;10.50;;;;;;4992086;28;20191;-70
2023/05/01 08:44:52;;;;;;;216.30;199.97;;;17.40;7.60;;;;;;4992653;28;20585;-70
2023/05/01 08:47:17;;;;;;;210.90;193.90;;;17.60;6.60;;;;;;4992425;28;21034;-69
2023/05/01 08:49:44;;;;;;;483.17;446.47;;;17.70;6.00;;;;;;5003955;28;20513;-70
2023/05/01 08:52:11;;;;;;;250.93;231.47;;;18.30;6.40;;;;;;5010103;28;20532;-69
2023/05/01 08:54:44;;;;;;;288.47;265.20;;;18.40;6.00;;;;;;5012081;28;20819;-69
2023/05/01 08:57:10;;;;;;;343.77;319.97;;;18.80;4.70;;;;;;5012023;28;20442;-70
2023/05/01 08:59:37;;;;;;;217.23;201.43;;;18.90;5.20;;;;;;5000296;28;20434;-70
2023/05/01 09:02:04;;;;;;;470.63;437.40;;;19.20;3.90;;;;;;4995278;28;20416;-70
2023/05/01 09:04:35;;;;;;;426.53;401.70;;;19.40;2.50;;;;;;4996405;28;20905;-70
2023/05/01 09:07:02;;;;;;;404.10;372.10;;;19.10;4.20;;;;;;4996137;28;20547;-70
2023/05/01 09:09:29;;;;;;;494.07;457.00;;;19.50;3.70;;;;;;5006206;28;20480;-70
2023/05/01 09:12:24;;;;;;;359.63;333.93;;;19.50;3.50;;;;;;5015665;28;20892;-70
2023/05/01 09:14:55;;;;;;;524.47;490.60;;;19.10;3.90;;;;;;5015736;28;20493;-68
2023/05/01 09:17:22;;;;;;;511.63;470.90;;;19.10;3.40;;;;;;5014319;28;20916;-69
2023/05/01 09:19:48;;;;;;;322.57;296.90;;;19.50;2.90;;;;;;5002820;28;20518;-69
2023/05/01 09:22:17;;;;;;;325.80;301.33;;;19.90;2.90;;;;;;4995829;28;20484;-70
2023/05/01 09:24:42;;;;;;;421.60;388.80;;;20.30;2.70;;;;;;4995969;28;20434;-69
2023/05/01 09:27:12;;;;;;;591.27;542.57;;;20.00;3.30;;;;;;4995965;28;20996;-70
2023/05/01 09:29:46;;;;;;;582.50;537.57;;;20.20;2.10;;;;;;5006935;28;20172;-69
2023/05/01 09:32:21;;;;;;;449.80;414.17;;;19.60;2.70;;;;;;5015331;28;20413;-69
2023/05/01 09:34:48;;;;;;;446.87;415.47;;;19.60;3.30;;;;;;5015542;28;20755;-69
2023/05/01 09:37:26;;;;;;;398.37;367.70;;;20.30;2.10;;;;;;5015304;28;20446;-69
2023/05/01 09:40:00;;;;;;;728.17;666.80;;;20.90;2.10;;;;;;4997546;28;20506;-70
2023/05/01 09:42:26;;;;;;;576.57;532.10;;;21.50;1.00;;;;;;4995360;28;20411;-69
2023/05/01 09:44:51;;;;;;;443.83;414.07;;;21.60;1.00;;;;;;4995419;28;20423;-69
2023/05/01 09:47:27;;;;;;;443.97;414.17;;;21.60;1.00;;;;;;4995558;28;20213;-70
2023/05/01 09:49:59;;;;;;;691.97;633.27;;;21.10;1.00;;;;;;5011541;28;20184;-69
2023/05/01 09:52:29;;;;;;;744.97;683.43;;;20.20;1.10;;;;;;5014778;28;20908;-69
2023/05/01 09:55:17;;;;;;;684.27;627.17;;;20.00;1.20;;;;;;5014922;28;20823;-69
2023/05/01 09:57:45;;;;;;;611.50;570.30;;;20.20;1.20;;;;;;5014689;28;20415;-69
2023/05/01 10:00:12;;;;;;;573.73;523.60;;;20.70;1.00;;;;;;5015119;28;20430;-69
2023/05/01 10:02:39;;;;;;;634.63;580.67;;;20.40;1.00;;;;;;5014585;28;20465;-69
2023/05/01 10:05:06;;;;;;;437.57;402.97;;;20.00;1.00;;;;;;5015002;28;20685;-69
2023/05/01 10:07:32;;;;;;;580.63;535.43;;;19.90;1.40;;;;;;5014800;28;20454;-69
2023/05/01 10:09:57;;;;;;;521.63;483.37;;;19.60;2.70;;;;;;4996890;28;20821;-69
2023/05/01 10:12:27;;;;;;;785.07;716.23;;;20.20;1.10;;;;;;4995142;28;20418;-69
2023/05/01 10:14:54;;;;;;;625.53;572.10;;;20.30;1.00;;;;;;4995452;28;20277;-69
2023/05/01 10:17:20;;;;;;;775.43;709.57;;;20.30;1.00;;;;;;4995205;28;20503;-69
2023/05/01 10:19:47;;;;;;;380.43;350.63;;;20.50;1.00;;;;;;5011033;28;20932;-69
2023/05/01 10:22:13;;;;;;;558.63;512.50;;;20.30;1.30;;;;;;5014183;28;20411;-69
2023/05/01 10:24:42;;;;;;;421.07;386.67;;;20.20;1.00;;;;;;5014635;28;20423;-69
2023/05/01 10:27:08;;;;;;;704.77;644.70;;;20.10;1.00;;;;;;5014831;28;20458;-69
2023/05/01 10:29:35;;;;;;;608.70;556.07;;;19.90;1.40;;;;;;4999360;28;20428;-69
2023/05/01 10:32:03;;;;;;;685.17;631.90;;;19.50;1.00;;;;;;4994748;28;21028;-69
2023/05/01 10:34:31;;;;;;;449.07;412.90;;;19.20;1.10;;;;;;4994975;28;20479;-69
2023/05/01 10:37:01;;;;;;;620.33;563.90;;;19.50;1.30;;;;;;4994656;28;20531;-69
2023/05/01 10:39:35;;;;;;;327.17;299.70;;;19.50;1.00;;;;;;5007318;28;20434;-70
2023/05/01 10:42:12;;;;;;;580.30;531.20;;;20.00;1.00;;;;;;5013966;28;20419;-70
2023/05/01 10:44:39;;;;;;;625.27;570.97;;;19.90;1.10;;;;;;5014147;28;20437;-70
2023/05/01 10:47:22;;;;;;;666.83;610.30;;;19.60;1.00;;;;;;5014818;28;20492;-68
2023/05/01 10:50:08;;;;;;;937.30;858.43;;;19.30;1.30;;;;;;4998739;28;20456;-68
2023/05/01 10:53:11;;;;;;;483.43;444.07;;;19.20;1.70;;;;;;4994317;28;20406;-69
2023/05/01 10:55:48;;;;;;;533.17;492.70;;;19.50;1.30;;;;;;4993522;28;20983;-68
2023/05/01 10:58:32;;;;;;;359.33;329.07;;;19.20;1.40;;;;;;5000912;28;20423;-70
2023/05/01 11:01:36;;;;;;;694.63;638.77;;;19.30;1.60;;;;;;5012653;28;20426;-69
2023/05/01 11:04:26;;;;;;;379.73;347.70;;;19.00;1.00;;;;;;5014270;28;20774;-69
2023/05/01 11:07:03;;;;;;;680.00;621.77;;;19.50;1.00;;;;;;5014098;28;20540;-69
2023/05/01 11:09:42;;;;;;;740.83;681.43;;;19.00;1.30;;;;;;4995453;28;20473;-69
2023/05/01 11:12:09;;;;;;;182.77;167.10;;;18.60;2.50;;;;;;4994105;28;20408;-69
2023/05/01 11:15:00;;;;;;;218.23;201.57;;;18.70;3.70;;;;;;4994411;28;20416;-69
2023/05/01 11:17:41;;;;;;;665.10;612.37;;;18.50;4.90;;;;;;4994266;28;20971;-69
2023/05/01 11:20:07;;;;;;;608.73;561.97;;;18.20;6.30;;;;;;5012911;28;20856;-68
2023/05/01 11:22:34;;;;;;;533.17;492.33;;;17.90;7.60;;;;;;5014843;28;20497;-69
2023/05/01 11:25:03;;;;;;;463.10;427.23;;;17.70;7.80;;;;;;5014202;28;20510;-69
2023/05/01 11:27:29;;;;;;;375.63;349.90;;;17.80;8.70;;;;;;5013592;28;20461;-69
2023/05/01 11:30:00;;;;;;;545.03;504.20;;;17.70;9.10;;;;;;4994557;28;20809;-69
2023/05/01 11:32:28;;;;;;;614.27;567.50;;;17.90;8.00;;;;;;4997099;28;20573;-69
2023/05/01 11:34:55;;;;;;;623.93;572.70;;;17.60;9.70;;;;;;5013509;28;20411;-69
2023/05/01 11:37:41;;;;;;;657.53;606.47;;;17.70;8.20;;;;;;5013560;28;20789;-69
2023/05/01 11:40:36;;;;;;;546.73;507.47;;;17.70;8.00;;;;;;5013693;28;20489;-67
2023/05/01 11:43:06;;;;;;;542.27;498.63;;;17.70;8.10;;;;;;5003636;28;20434;-68
2023/05/01 11:45:33;;;;;;;531.90;489.17;;;18.10;7.00;;;;;;4993381;28;20463;-68
2023/05/01 11:48:01;;;;;;;472.57;439.53;;;18.30;6.40;;;;;;4993666;28;20470;-68
2023/05/01 11:50:34;;;;;;;255.80;234.63;;;18.60;6.60;;;;;;4992328;28;20431;-68
2023/05/01 11:53:01;;;;;;;524.30;483.00;;;18.90;5.40;;;;;;5002054;28;20422;-68
2023/05/01 11:55:31;;;;;;;694.07;633.90;;;19.00;4.90;;;;;;5011748;28;20474;-68
2023/05/01 11:57:57;;;;;;;711.30;653.17;;;18.70;4.90;;;;;;5013042;28;20421;-68
2023/05/01 12:00:35;;;;;;;565.10;518.90;;;18.60;5.00;;;;;;5013426;28;20498;-68
2023/05/01 12:03:12;;;;;;;695.30;636.43;;;18.60;5.60;;;;;;5003802;28;20428;-69
2023/05/01 12:05:41;;;;;;;669.67;612.17;;;18.50;4.60;;;;;;4993516;28;20451;-69
2023/05/01 12:08:19;;;;;;;582.00;534.33;;;18.60;3.70;;;;;;4993493;28;20408;-69
2023/05/01 12:10:48;;;;;;;646.17;593.57;;;18.30;4.40;;;;;;4992188;28;20451;-68
2023/05/01 12:13:15;;;;;;;495.83;456.17;;;18.30;5.00;;;;;;5003495;28;20429;-69
2023/05/01 12:15:43;;;;;;;449.93;414.97;;;18.20;4.90;;;;;;5012583;28;20430;-69
2023/05/01 12:18:11;;;;;;;578.70;531.40;;;18.20;4.70;;;;;;5012847;28;20404;-69